Time;durP1;ratioP1;P1;durP2;ratioP2;P2;SDS_P1;SDS_P2;PMS_P1;PMS_P2;Temp;Humidity;BMP_temperature;BMP_pressure;BME280_temperature;BME280_humidity;BME280_pressure;Samples;Min_cycle;Max_cycle;Signal;HPM_P1;HPM_P2
2023/04/04 00:01:23;;;;;;;4.25;2.60;;;1.60;99.90;;;;;;4986702;28;20438;-75
2023/04/04 00:03:50;;;;;;;7.32;3.75;;;1.50;99.90;;;;;;4988549;28;20781;-77
2023/04/04 00:06:19;;;;;;;4.53;2.92;;;1.50;99.90;;;;;;4992342;28;20797;-76
2023/04/04 00:08:46;;;;;;;6.57;3.05;;;1.40;99.90;;;;;;4989103;28;20418;-75
2023/04/04 00:11:12;;;;;;;5.97;3.00;;;1.20;99.90;;;;;;4983682;28;20421;-78
2023/04/04 00:13:39;;;;;;;4.43;3.13;;;1.20;99.90;;;;;;4989440;28;20782;-78
2023/04/04 00:16:05;;;;;;;7.73;3.60;;;1.20;99.90;;;;;;4989802;28;20430;-77
2023/04/04 00:18:31;;;;;;;4.77;2.47;;;1.20;99.90;;;;;;4990049;28;20463;-76
2023/04/04 00:20:58;;;;;;;6.43;3.47;;;1.40;99.90;;;;;;4991942;28;20437;-76
2023/04/04 00:23:24;;;;;;;4.72;2.70;;;1.40;99.90;;;;;;4992774;28;20433;-77
2023/04/04 00:25:52;;;;;;;6.35;3.47;;;1.20;99.90;;;;;;4988084;28;20438;-75
2023/04/04 00:28:19;;;;;;;5.05;3.20;;;1.20;99.90;;;;;;4991165;28;20408;-76
2023/04/04 00:30:48;;;;;;;7.60;4.07;;;1.20;99.90;;;;;;4987273;28;20830;-77
2023/04/04 00:33:14;;;;;;;5.28;3.03;;;1.20;99.90;;;;;;4974147;28;20461;-75
2023/04/04 00:35:40;;;;;;;5.85;3.28;;;1.20;99.90;;;;;;4987376;28;20406;-77
2023/04/04 00:38:06;;;;;;;5.47;3.10;;;1.00;99.90;;;;;;5004371;28;20424;-79
2023/04/04 00:40:39;;;;;;;7.68;4.32;;;1.10;99.90;;;;;;4982021;28;20453;-76
2023/04/04 00:43:06;;;;;;;5.25;3.70;;;1.10;99.90;;;;;;4989513;28;20979;-78
2023/04/04 00:45:33;;;;;;;5.15;3.00;;;1.00;99.90;;;;;;4986396;28;20426;-76
2023/04/04 00:48:01;;;;;;;7.95;3.03;;;0.90;99.90;;;;;;4994597;28;20433;-76
2023/04/04 00:50:27;;;;;;;5.13;3.45;;;1.00;99.90;;;;;;4991397;28;20469;-77
2023/04/04 00:52:52;;;;;;;6.53;3.35;;;0.90;99.90;;;;;;4997479;28;20458;-78
2023/04/04 00:55:18;;;;;;;4.65;3.25;;;1.00;99.90;;;;;;4986800;28;20442;-78
2023/04/04 00:57:44;;;;;;;5.15;3.05;;;1.10;99.90;;;;;;5002104;28;20430;-76
2023/04/04 01:00:11;;;;;;;5.82;3.45;;;0.90;99.90;;;;;;4982300;28;20426;-79
2023/04/04 01:02:37;;;;;;;5.57;3.33;;;0.90;99.90;;;;;;4990887;28;20491;-78
2023/04/04 01:05:03;;;;;;;9.65;3.72;;;0.90;99.90;;;;;;4990425;28;20849;-78
2023/04/04 01:07:29;;;;;;;7.00;3.67;;;0.90;99.90;;;;;;4991698;28;20930;-76
2023/04/04 01:09:57;;;;;;;6.45;3.35;;;0.80;99.90;;;;;;4986105;28;21175;-77
2023/04/04 01:12:22;;;;;;;8.55;3.67;;;0.70;99.90;;;;;;4986019;28;20904;-78
2023/04/04 01:14:48;;;;;;;6.60;4.07;;;0.60;99.90;;;;;;4987575;28;20435;-77
2023/04/04 01:17:14;;;;;;;13.50;5.67;;;0.80;99.90;;;;;;4985377;28;20792;-77
2023/04/04 01:19:52;;;;;;;11.88;5.57;;;0.70;99.90;;;;;;4986222;28;20422;-75
2023/04/04 01:22:20;;;;;;;9.88;5.25;;;0.80;99.90;;;;;;5002044;28;20513;-75
2023/04/04 01:24:48;;;;;;;11.85;5.18;;;0.70;99.90;;;;;;4986597;28;20438;-77
2023/04/04 01:27:15;;;;;;;14.20;6.65;;;0.70;99.90;;;;;;4980479;28;20422;-76
2023/04/04 01:29:40;;;;;;;16.17;5.63;;;0.70;99.90;;;;;;4987604;28;20517;-78
2023/04/04 01:32:14;;;;;;;9.50;5.63;;;0.70;99.90;;;;;;4986882;28;20469;-76
2023/04/04 01:34:52;;;;;;;10.68;5.72;;;0.70;99.90;;;;;;4986829;28;20438;-77
2023/04/04 01:37:34;;;;;;;11.10;5.22;;;0.70;99.90;;;;;;4986725;28;20414;-75
2023/04/04 01:40:10;;;;;;;13.98;6.80;;;0.70;99.90;;;;;;4986679;28;20418;-77
2023/04/04 01:42:36;;;;;;;15.32;6.90;;;0.50;99.90;;;;;;4985808;28;20480;-78
2023/04/04 01:45:04;;;;;;;12.32;6.18;;;0.50;99.90;;;;;;4985943;28;20903;-76
2023/04/04 01:47:40;;;;;;;14.73;6.70;;;0.40;99.90;;;;;;4986582;28;20414;-77
2023/04/04 01:50:07;;;;;;;12.00;7.05;;;0.30;99.90;;;;;;4983805;28;20876;-77
2023/04/04 01:52:34;;;;;;;10.48;5.35;;;0.30;99.90;;;;;;4989793;28;20506;-78
2023/04/04 01:55:00;;;;;;;9.20;5.30;;;0.40;99.90;;;;;;4986833;28;20427;-77
2023/04/04 01:57:25;;;;;;;9.55;4.78;;;0.50;99.90;;;;;;4985126;28;20445;-77
2023/04/04 01:59:51;;;;;;;10.90;4.93;;;0.50;99.90;;;;;;4985464;28;21109;-76
2023/04/04 02:02:17;;;;;;;9.37;4.80;;;0.50;99.90;;;;;;4983875;28;20427;-77
2023/04/04 02:04:43;;;;;;;7.27;4.13;;;0.60;99.90;;;;;;4985555;28;20453;-75
2023/04/04 02:07:08;;;;;;;6.68;4.22;;;0.60;99.90;;;;;;4989209;28;20429;-75
2023/04/04 02:09:34;;;;;;;9.18;4.82;;;0.60;99.90;;;;;;4995365;28;20785;-76
2023/04/04 02:12:00;;;;;;;6.55;4.38;;;0.60;99.90;;;;;;4985427;28;20422;-76
2023/04/04 02:14:26;;;;;;;6.72;4.10;;;0.70;99.90;;;;;;4987280;28;20434;-77
2023/04/04 02:16:52;;;;;;;6.88;4.07;;;0.70;99.90;;;;;;4985797;28;20426;-77
2023/04/04 02:19:17;;;;;;;6.75;4.00;;;0.70;99.90;;;;;;4989522;28;20449;-77
2023/04/04 02:21:43;;;;;;;5.50;3.55;;;0.80;99.90;;;;;;4983321;28;20434;-78
2023/04/04 02:24:09;;;;;;;15.05;4.50;;;0.70;99.90;;;;;;4987339;28;20440;-76
2023/04/04 02:26:35;;;;;;;7.10;4.30;;;0.50;99.90;;;;;;4988086;28;20526;-77
2023/04/04 02:29:01;;;;;;;8.98;4.50;;;0.40;99.90;;;;;;4986748;28;20976;-77
2023/04/04 02:31:27;;;;;;;7.20;4.25;;;0.50;99.90;;;;;;4985222;28;20665;-76
2023/04/04 02:33:53;;;;;;;9.05;4.90;;;0.40;99.90;;;;;;4985933;28;20459;-75
2023/04/04 02:36:19;;;;;;;6.97;4.30;;;0.50;99.90;;;;;;4986841;28;20426;-77
2023/04/04 02:38:44;;;;;;;10.97;4.47;;;0.50;99.90;;;;;;4983866;28;20445;-75
2023/04/04 02:41:10;;;;;;;8.23;4.17;;;0.40;99.90;;;;;;4986313;28;21025;-74
2023/04/04 02:43:36;;;;;;;8.32;4.53;;;0.50;99.90;;;;;;4986775;28;20509;-78
2023/04/04 02:46:01;;;;;;;7.15;4.22;;;0.50;99.90;;;;;;4987559;28;20477;-77
2023/04/04 02:48:27;;;;;;;9.73;4.47;;;0.60;99.90;;;;;;4990625;28;20417;-75
2023/04/04 02:50:53;;;;;;;10.13;4.95;;;0.50;99.90;;;;;;4993955;28;20492;-76
2023/04/04 02:53:19;;;;;;;8.37;4.57;;;0.70;99.90;;;;;;4991182;28;20434;-78
2023/04/04 02:55:45;;;;;;;9.70;4.83;;;0.50;99.90;;;;;;4990454;28;20454;-77
2023/04/04 02:58:10;;;;;;;7.45;4.65;;;0.60;99.90;;;;;;4992068;28;20425;-75
2023/04/04 03:00:36;;;;;;;9.40;4.57;;;0.60;99.90;;;;;;4990721;28;20434;-76
2023/04/04 03:03:02;;;;;;;7.72;4.82;;;0.50;99.90;;;;;;4993956;28;20437;-78
2023/04/04 03:05:29;;;;;;;8.67;4.97;;;0.50;99.90;;;;;;4993526;28;20651;-78
2023/04/04 03:07:56;;;;;;;7.35;4.75;;;0.60;99.90;;;;;;4989948;28;20446;-78
2023/04/04 03:10:28;;;;;;;10.20;5.75;;;0.40;99.90;;;;;;4989528;28;20760;-76
2023/04/04 03:12:54;;;;;;;6.75;4.50;;;0.20;99.90;;;;;;4989470;28;20436;-77
2023/04/04 03:15:20;;;;;;;8.23;4.70;;;0.10;99.90;;;;;;4989310;28;20777;-76
2023/04/04 03:17:46;;;;;;;7.27;4.57;;;0.00;99.90;;;;;;4989932;28;20419;-76
2023/04/04 03:20:13;;;;;;;6.78;4.63;;;0.10;99.90;;;;;;4989413;28;20430;-75
2023/04/04 03:22:40;;;;;;;7.88;4.72;;;0.00;99.90;;;;;;4992041;28;20502;-75
2023/04/04 03:25:06;;;;;;;8.10;4.78;;;0.20;99.90;;;;;;4992947;28;20438;-77
2023/04/04 03:27:31;;;;;;;7.10;4.65;;;0.20;99.90;;;;;;4991800;28;20467;-75
2023/04/04 03:30:01;;;;;;;12.20;6.45;;;0.00;99.90;;;;;;4994266;28;20415;-77
2023/04/04 03:32:27;;;;;;;7.05;4.22;;;0.10;99.90;;;;;;4991604;28;20517;-76
2023/04/04 03:34:53;;;;;;;8.65;4.53;;;0.20;99.90;;;;;;4998462;28;20424;-75
2023/04/04 03:37:19;;;;;;;8.15;4.45;;;0.20;99.90;;;;;;4993741;28;20434;-79
2023/04/04 03:39:44;;;;;;;7.60;4.25;;;0.20;99.90;;;;;;4989160;28;20476;-77
2023/04/04 03:42:11;;;;;;;7.60;4.67;;;0.00;99.90;;;;;;4987701;28;20463;-77
2023/04/04 03:44:40;;;;;;;8.00;4.90;;;-0.10;99.90;;;;;;4993399;28;20518;-76
2023/04/04 03:47:06;;;;;;;9.38;5.32;;;0.10;99.90;;;;;;4989569;28;20503;-78
2023/04/04 03:49:33;;;;;;;7.82;5.25;;;0.00;99.90;;;;;;4989377;28;20988;-77
2023/04/04 03:51:59;;;;;;;7.47;4.63;;;0.10;99.90;;;;;;4987319;28;20890;-77
2023/04/04 03:54:27;;;;;;;5.45;4.30;;;-0.10;99.90;;;;;;4987201;28;20505;-77
2023/04/04 03:56:53;;;;;;;8.15;4.10;;;-0.20;99.90;;;;;;4988988;28;20914;-76
2023/04/04 03:59:20;;;;;;;7.78;4.95;;;0.00;99.90;;;;;;4987451;28;20437;-77
2023/04/04 04:01:46;;;;;;;6.85;4.70;;;0.10;99.90;;;;;;4989131;28;20497;-76
2023/04/04 04:04:11;;;;;;;11.97;5.83;;;0.20;99.90;;;;;;4989782;28;20525;-77
2023/04/04 04:06:37;;;;;;;8.13;5.17;;;0.10;99.90;;;;;;4983557;28;20432;-77
2023/04/04 04:09:03;;;;;;;12.10;5.43;;;0.10;99.90;;;;;;4984323;28;20438;-76
2023/04/04 04:11:28;;;;;;;8.63;5.15;;;0.10;99.90;;;;;;4988381;28;20454;-75
2023/04/04 04:13:54;;;;;;;7.80;4.40;;;0.10;99.90;;;;;;4989833;28;20441;-76
2023/04/04 04:16:23;;;;;;;6.85;4.60;;;0.00;99.90;;;;;;4987053;28;20509;-76
2023/04/04 04:18:48;;;;;;;9.30;4.95;;;-0.10;99.90;;;;;;4992766;28;20425;-78
2023/04/04 04:21:14;;;;;;;7.93;5.20;;;0.00;99.90;;;;;;4994292;28;20768;-79
2023/04/04 04:23:40;;;;;;;8.40;4.57;;;0.10;99.90;;;;;;4987093;28;20438;-77
2023/04/04 04:26:06;;;;;;;8.17;4.90;;;-0.10;99.90;;;;;;4988335;28;20425;-79
2023/04/04 04:28:31;;;;;;;6.45;4.45;;;-0.10;99.90;;;;;;4987651;28;20788;-78
2023/04/04 04:31:06;;;;;;;7.03;4.53;;;0.00;99.90;;;;;;4985896;28;21158;-76
2023/04/04 04:33:32;;;;;;;7.57;4.40;;;-0.10;99.90;;;;;;4988072;28;20858;-77
2023/04/04 04:36:01;;;;;;;6.95;4.97;;;0.00;99.90;;;;;;4988389;28;20438;-75
2023/04/04 04:38:27;;;;;;;9.35;5.13;;;-0.20;99.90;;;;;;4990035;28;20443;-75
2023/04/04 04:40:53;;;;;;;7.80;5.03;;;-0.30;99.90;;;;;;4984821;28;20418;-76
2023/04/04 04:43:22;;;;;;;7.00;4.50;;;-0.20;99.90;;;;;;4997627;28;20794;-74
2023/04/04 04:45:49;;;;;;;6.75;5.05;;;-0.10;99.90;;;;;;4986422;28;20435;-76
2023/04/04 04:48:16;;;;;;;6.65;4.45;;;-0.20;99.90;;;;;;4987260;28;20454;-76
2023/04/04 04:50:45;;;;;;;7.75;4.28;;;-0.20;99.90;;;;;;4986076;28;20426;-76
2023/04/04 04:53:12;;;;;;;9.57;5.15;;;0.00;99.90;;;;;;4988530;28;20862;-75
2023/04/04 04:55:38;;;;;;;10.45;5.82;;;0.10;99.90;;;;;;4986273;28;20446;-75
2023/04/04 04:58:05;;;;;;;9.15;4.90;;;0.10;99.90;;;;;;4987719;28;21024;-75
2023/04/04 05:00:31;;;;;;;10.47;4.60;;;0.00;99.90;;;;;;4985605;28;20618;-75
2023/04/04 05:02:59;;;;;;;7.13;5.53;;;0.00;99.90;;;;;;4992024;28;20498;-76
2023/04/04 05:05:25;;;;;;;7.55;5.22;;;-0.10;99.90;;;;;;4992984;28;20509;-77
2023/04/04 05:07:51;;;;;;;6.47;4.07;;;-0.30;99.90;;;;;;4985917;28;20454;-76
2023/04/04 05:10:17;;;;;;;7.20;5.07;;;-0.20;99.90;;;;;;4981914;28;20941;-75
2023/04/04 05:12:43;;;;;;;9.73;5.38;;;-0.30;99.90;;;;;;4987744;28;20426;-75
2023/04/04 05:15:11;;;;;;;8.68;5.57;;;-0.30;99.90;;;;;;4985565;28;20506;-75
2023/04/04 05:17:37;;;;;;;8.10;4.78;;;-0.20;99.90;;;;;;4984537;28;20452;-76
2023/04/04 05:20:03;;;;;;;10.23;5.03;;;-0.10;99.90;;;;;;4986058;28;20445;-75
2023/04/04 05:22:29;;;;;;;6.93;5.57;;;-0.20;99.90;;;;;;4986728;28;20429;-75
2023/04/04 05:24:55;;;;;;;7.10;5.20;;;-0.40;99.90;;;;;;4985305;28;20529;-75
2023/04/04 05:27:21;;;;;;;8.50;4.90;;;-0.30;99.90;;;;;;4986238;28;20430;-76
2023/04/04 05:29:47;;;;;;;7.93;5.28;;;-0.20;99.90;;;;;;4984605;28;20877;-75
2023/04/04 05:32:13;;;;;;;6.97;4.72;;;0.50;99.90;;;;;;4987402;28;20425;-76
2023/04/04 05:34:39;;;;;;;18.98;6.50;;;0.60;99.90;;;;;;4969932;28;20797;-76
2023/04/04 05:37:04;;;;;;;8.80;5.10;;;0.30;99.90;;;;;;4989176;28;20406;-77
2023/04/04 05:39:30;;;;;;;7.93;5.20;;;0.30;99.90;;;;;;4982562;28;20462;-76
2023/04/04 05:41:56;;;;;;;7.93;5.53;;;0.10;99.90;;;;;;4989545;28;20917;-76
2023/04/04 05:44:22;;;;;;;9.60;5.63;;;0.20;99.90;;;;;;4967710;28;20461;-74
2023/04/04 05:46:48;;;;;;;9.83;5.50;;;0.10;99.90;;;;;;4985722;28;20429;-75
2023/04/04 05:49:13;;;;;;;10.30;5.60;;;0.30;99.90;;;;;;4991562;28;20436;-76
2023/04/04 05:51:39;;;;;;;9.00;5.30;;;0.30;99.90;;;;;;4987294;28;20844;-75
2023/04/04 05:54:06;;;;;;;7.50;5.28;;;0.40;99.90;;;;;;4988797;28;20834;-75
2023/04/04 05:56:32;;;;;;;7.18;5.70;;;0.50;99.90;;;;;;4985892;28;20473;-74
2023/04/04 05:58:58;;;;;;;12.43;5.68;;;0.60;99.90;;;;;;4984521;28;20521;-76
2023/04/04 06:01:24;;;;;;;11.27;5.22;;;0.80;99.90;;;;;;4987631;28;20873;-74
2023/04/04 06:03:50;;;;;;;9.23;5.68;;;0.80;99.90;;;;;;4990165;28;20516;-76
2023/04/04 06:06:16;;;;;;;8.55;5.32;;;1.00;99.90;;;;;;4988947;28;20449;-74
2023/04/04 06:08:42;;;;;;;7.15;5.28;;;1.60;99.90;;;;;;4990514;28;20801;-75
2023/04/04 06:11:07;;;;;;;10.70;5.47;;;2.00;99.90;;;;;;4960176;28;20434;-75
2023/04/04 06:13:33;;;;;;;11.37;4.90;;;1.70;99.90;;;;;;4985414;28;20488;-75
2023/04/04 06:15:58;;;;;;;11.70;6.10;;;1.60;99.90;;;;;;4983383;28;20469;-75
2023/04/04 06:18:24;;;;;;;7.23;4.43;;;1.70;99.90;;;;;;4968015;28;20448;-78
2023/04/04 06:20:50;;;;;;;9.50;5.47;;;2.00;99.90;;;;;;4987654;28;20449;-75
2023/04/04 06:23:15;;;;;;;9.93;4.80;;;2.10;99.90;;;;;;4974407;28;20846;-75
2023/04/04 06:25:41;;;;;;;8.13;5.00;;;1.90;99.90;;;;;;4991279;28;20434;-76
2023/04/04 06:28:08;;;;;;;12.57;5.28;;;1.90;99.90;;;;;;4984269;28;20414;-76
2023/04/04 06:30:36;;;;;;;7.00;4.53;;;2.00;99.90;;;;;;4989842;28;20462;-75
2023/04/04 06:33:05;;;;;;;8.35;3.90;;;2.10;99.90;;;;;;4990535;28;20418;-74
2023/04/04 06:35:31;;;;;;;6.97;4.50;;;2.10;99.90;;;;;;4992075;28;20417;-74
2023/04/04 06:37:57;;;;;;;9.60;4.27;;;2.10;99.90;;;;;;4993082;28;20822;-73
2023/04/04 06:40:23;;;;;;;6.25;4.07;;;2.30;99.90;;;;;;4990864;28;20441;-73
2023/04/04 06:42:50;;;;;;;10.23;3.80;;;2.50;99.90;;;;;;4987856;28;20775;-75
2023/04/04 06:45:16;;;;;;;7.00;4.22;;;2.40;99.90;;;;;;4975140;28;20422;-75
2023/04/04 06:47:42;;;;;;;7.55;4.07;;;2.70;99.90;;;;;;4988731;28;20446;-74
2023/04/04 06:50:09;;;;;;;7.30;4.07;;;2.80;99.90;;;;;;4986490;28;20864;-76
2023/04/04 06:52:35;;;;;;;7.43;4.40;;;2.70;99.90;;;;;;4986994;28;21099;-74
2023/04/04 06:55:01;;;;;;;6.03;4.00;;;2.80;99.90;;;;;;4991394;28;20792;-75
2023/04/04 06:57:27;;;;;;;4.82;3.63;;;2.70;99.90;;;;;;4972009;28;20447;-76
2023/04/04 06:59:53;;;;;;;6.03;3.95;;;2.80;99.90;;;;;;4987190;28;20426;-76
2023/04/04 07:02:18;;;;;;;8.02;4.07;;;2.60;99.90;;;;;;4971887;28;20445;-74
2023/04/04 07:04:44;;;;;;;6.82;4.18;;;2.60;99.90;;;;;;4987334;28;20437;-74
2023/04/04 07:07:10;;;;;;;8.48;3.75;;;2.50;99.90;;;;;;4991141;28;20406;-75
2023/04/04 07:09:36;;;;;;;8.43;3.63;;;2.70;99.90;;;;;;4991454;28;20480;-74
2023/04/04 07:12:02;;;;;;;18.33;4.40;;;2.70;99.90;;;;;;4988722;28;20960;-76
2023/04/04 07:14:28;;;;;;;7.10;3.60;;;2.80;99.90;;;;;;4990871;28;20430;-76
2023/04/04 07:16:54;;;;;;;6.45;3.30;;;2.80;99.90;;;;;;4990641;28;20506;-75
2023/04/04 07:19:22;;;;;;;5.93;3.17;;;2.90;99.90;;;;;;4989631;28;20505;-75
2023/04/04 07:21:49;;;;;;;4.35;2.55;;;2.80;99.90;;;;;;4989761;28;20438;-75
2023/04/04 07:24:14;;;;;;;9.37;3.50;;;2.90;99.90;;;;;;4990492;28;20966;-75
2023/04/04 07:26:40;;;;;;;5.30;3.47;;;2.90;99.90;;;;;;4988400;28;20438;-74
2023/04/04 07:29:06;;;;;;;6.65;3.30;;;3.20;99.90;;;;;;4990335;28;20505;-76
2023/04/04 07:31:32;;;;;;;7.63;3.05;;;3.50;99.90;;;;;;4989355;28;20417;-74
2023/04/04 07:33:58;;;;;;;6.40;2.77;;;3.60;99.90;;;;;;4986390;28;20831;-74
2023/04/04 07:36:23;;;;;;;7.43;3.30;;;3.70;99.90;;;;;;4973413;28;20422;-75
2023/04/04 07:38:49;;;;;;;7.27;3.30;;;3.50;99.90;;;;;;4993899;28;20429;-75
2023/04/04 07:41:15;;;;;;;5.90;2.67;;;3.60;99.90;;;;;;4988558;28;20525;-75
2023/04/04 07:43:41;;;;;;;5.63;3.55;;;4.00;99.90;;;;;;4989423;28;20430;-75
2023/04/04 07:46:06;;;;;;;6.50;3.53;;;4.20;99.90;;;;;;4987006;28;20434;-75
2023/04/04 07:48:32;;;;;;;6.38;2.55;;;4.20;99.90;;;;;;4989600;28;20410;-76
2023/04/04 07:51:00;;;;;;;5.85;2.85;;;4.40;99.90;;;;;;4985359;28;20441;-75
2023/04/04 07:53:27;;;;;;;5.10;2.50;;;4.60;99.90;;;;;;4988522;28;20430;-75
2023/04/04 07:55:52;;;;;;;7.53;2.53;;;4.60;99.90;;;;;;4982114;28;20439;-75
2023/04/04 07:58:18;;;;;;;5.97;2.60;;;4.90;99.90;;;;;;4987770;28;20442;-75
2023/04/04 08:00:44;;;;;;;5.23;2.37;;;5.10;99.90;;;;;;4987667;28;20517;-75
2023/04/04 08:03:10;;;;;;;5.85;3.10;;;5.10;99.90;;;;;;4988999;28;20933;-74
2023/04/04 08:05:35;;;;;;;5.22;2.45;;;5.00;99.90;;;;;;4985793;28;20439;-79
2023/04/04 08:08:01;;;;;;;7.15;2.60;;;4.90;99.90;;;;;;4986652;28;20433;-75
2023/04/04 08:10:27;;;;;;;6.65;2.70;;;5.00;99.90;;;;;;4986785;28;20442;-76
2023/04/04 08:12:52;;;;;;;5.35;2.33;;;5.10;99.90;;;;;;4989359;28;20983;-76
2023/04/04 08:15:18;;;;;;;6.68;2.97;;;5.00;99.90;;;;;;4989455;28;20438;-76
2023/04/04 08:17:44;;;;;;;5.72;3.05;;;5.10;99.90;;;;;;4986979;28;20425;-77
2023/04/04 08:20:10;;;;;;;6.22;2.70;;;5.50;99.90;;;;;;4988798;28;20431;-74
2023/04/04 08:22:36;;;;;;;7.97;3.13;;;5.60;99.90;;;;;;4983916;28;20973;-73
2023/04/04 08:25:02;;;;;;;6.83;2.43;;;5.70;99.90;;;;;;4990305;28;20438;-74
2023/04/04 08:27:27;;;;;;;5.07;2.58;;;5.90;99.90;;;;;;4990062;28;20423;-75
2023/04/04 08:29:53;;;;;;;5.78;2.58;;;6.00;99.90;;;;;;4986951;28;20437;-75
2023/04/04 08:32:19;;;;;;;4.93;2.10;;;6.30;99.90;;;;;;4984945;28;20441;-76
2023/04/04 08:34:44;;;;;;;4.90;2.60;;;6.20;99.90;;;;;;4987170;28;20474;-76
2023/04/04 08:37:10;;;;;;;4.32;2.10;;;6.10;99.90;;;;;;4985522;28;20835;-75
2023/04/04 08:39:36;;;;;;;6.60;2.40;;;6.00;99.90;;;;;;4986032;28;20797;-77
2023/04/04 08:42:04;;;;;;;6.10;2.28;;;6.30;99.90;;;;;;4988548;28;20415;-76
2023/04/04 08:44:30;;;;;;;4.60;2.25;;;6.20;99.90;;;;;;4988502;28;20836;-76
2023/04/04 08:46:59;;;;;;;4.65;1.90;;;6.50;99.90;;;;;;4986898;28;20693;-75
2023/04/04 08:49:27;;;;;;;5.75;2.53;;;6.30;99.90;;;;;;4985858;28;20916;-75
2023/04/04 08:51:55;;;;;;;4.07;1.92;;;6.30;99.90;;;;;;4988734;28;20967;-76
2023/04/04 08:54:23;;;;;;;4.63;1.58;;;6.30;99.90;;;;;;4988386;28;20521;-76
2023/04/04 08:56:49;;;;;;;4.65;1.80;;;6.60;99.90;;;;;;4988406;28;20825;-76
2023/04/04 08:59:17;;;;;;;4.87;2.13;;;6.70;99.90;;;;;;4988536;28;20446;-75
2023/04/04 09:01:43;;;;;;;4.30;1.88;;;6.50;99.90;;;;;;4986386;28;20438;-76
2023/04/04 09:04:10;;;;;;;6.73;1.67;;;6.60;99.90;;;;;;4988284;28;21001;-74
2023/04/04 09:06:36;;;;;;;4.38;1.85;;;6.60;99.90;;;;;;4988258;28;20917;-76
2023/04/04 09:09:02;;;;;;;4.72;1.38;;;6.50;99.90;;;;;;4983159;28;20517;-75
2023/04/04 09:11:30;;;;;;;8.93;1.87;;;6.40;99.90;;;;;;4981686;28;20788;-75
2023/04/04 09:13:57;;;;;;;2.95;1.60;;;6.30;99.90;;;;;;4985501;28;20434;-75
2023/04/04 09:16:23;;;;;;;7.18;2.30;;;6.30;99.90;;;;;;4985948;28;20480;-74
2023/04/04 09:18:49;;;;;;;3.53;1.30;;;6.30;99.90;;;;;;4985378;28;20435;-75
2023/04/04 09:21:14;;;;;;;3.65;1.75;;;6.30;99.90;;;;;;4983395;28;20460;-75
2023/04/04 09:23:42;;;;;;;7.75;2.05;;;6.40;99.90;;;;;;4988265;28;20434;-76
2023/04/04 09:26:08;;;;;;;6.93;3.00;;;6.70;99.90;;;;;;4989024;28;20480;-75
2023/04/04 09:28:34;;;;;;;5.00;1.65;;;6.90;99.90;;;;;;4987406;28;20517;-75
2023/04/04 09:31:01;;;;;;;4.83;1.90;;;6.90;99.90;;;;;;4986373;28;20511;-75
2023/04/04 09:33:28;;;;;;;4.38;1.70;;;7.20;99.90;;;;;;4987070;28;20456;-75
2023/04/04 09:35:58;;;;;;;6.65;2.75;;;7.10;99.90;;;;;;4975490;28;20921;-75
2023/04/04 09:38:25;;;;;;;5.40;2.35;;;7.00;99.90;;;;;;4983487;28;20426;-76
2023/04/04 09:40:52;;;;;;;4.82;1.90;;;7.40;99.90;;;;;;4987479;28;20430;-76
2023/04/04 09:43:18;;;;;;;3.78;1.60;;;7.40;99.90;;;;;;4985150;28;20430;-75
2023/04/04 09:45:45;;;;;;;5.10;1.73;;;7.30;99.90;;;;;;4983558;28;20426;-74
2023/04/04 09:48:10;;;;;;;4.38;1.75;;;7.40;99.90;;;;;;4986589;28;20418;-75
2023/04/04 09:50:44;;;;;;;4.80;1.80;;;7.10;99.90;;;;;;4988167;28;20489;-74
2023/04/04 09:53:18;;;;;;;4.78;1.70;;;7.20;99.90;;;;;;4975900;28;20423;-75
2023/04/04 09:55:56;;;;;;;3.58;1.60;;;7.50;99.90;;;;;;4994671;28;20585;-74
2023/04/04 09:58:26;;;;;;;4.00;2.20;;;7.50;99.90;;;;;;4988235;28;22039;-74
2023/04/04 10:00:58;;;;;;;3.17;1.77;;;7.20;99.90;;;;;;4987133;28;20441;-74
2023/04/04 10:03:24;;;;;;;5.15;2.20;;;7.40;99.90;;;;;;4991586;28;20467;-74
2023/04/04 10:05:58;;;;;;;3.60;1.67;;;7.50;99.90;;;;;;4981073;28;20472;-72
2023/04/04 10:08:26;;;;;;;3.77;1.70;;;7.60;99.90;;;;;;4984885;28;20431;-74
2023/04/04 10:10:57;;;;;;;4.97;2.20;;;8.00;99.90;;;;;;4986643;28;20476;-76
2023/04/04 10:13:28;;;;;;;6.43;3.17;;;8.10;99.90;;;;;;4987146;28;20445;-72
2023/04/04 10:15:56;;;;;;;4.35;1.98;;;7.70;99.90;;;;;;4984638;28;20422;-74
2023/04/04 10:18:26;;;;;;;4.13;2.15;;;8.20;99.90;;;;;;4979798;28;20822;-73
2023/04/04 10:20:56;;;;;;;8.00;3.13;;;7.80;99.90;;;;;;4985146;28;20441;-72
2023/04/04 10:23:25;;;;;;;6.60;2.58;;;7.80;99.90;;;;;;4982512;28;20430;-73
2023/04/04 10:25:51;;;;;;;4.45;1.70;;;8.00;99.90;;;;;;4985954;28;20435;-75
2023/04/04 10:28:17;;;;;;;5.05;1.95;;;8.10;99.90;;;;;;4983411;28;20433;-76
2023/04/04 10:30:51;;;;;;;6.20;2.10;;;8.20;99.90;;;;;;4983483;28;20434;-75
2023/04/04 10:33:54;;;;;;;3.50;1.83;;;8.10;99.90;;;;;;4984645;28;20435;-75
2023/04/04 10:36:23;;;;;;;6.20;2.17;;;8.10;99.90;;;;;;4985194;28;20521;-76
2023/04/04 10:39:05;;;;;;;6.00;2.17;;;8.30;99.90;;;;;;4985837;28;20422;-76
2023/04/04 10:41:31;;;;;;;3.97;2.17;;;8.30;99.90;;;;;;4987083;28;20418;-76
2023/04/04 10:44:07;;;;;;;3.60;1.88;;;8.20;99.90;;;;;;4984328;28;20458;-75
2023/04/04 10:46:34;;;;;;;5.72;2.20;;;8.20;99.90;;;;;;4986775;28;20484;-75
2023/04/04 10:49:01;;;;;;;4.30;1.88;;;8.20;99.90;;;;;;4985284;28;20495;-75
2023/04/04 10:51:28;;;;;;;3.60;2.42;;;8.00;99.90;;;;;;4981617;28;20464;-73
2023/04/04 10:53:54;;;;;;;4.70;2.25;;;7.90;99.90;;;;;;4969346;28;20426;-74
2023/04/04 10:56:21;;;;;;;6.03;2.60;;;8.10;99.90;;;;;;4986680;28;20520;-75
2023/04/04 10:58:48;;;;;;;4.57;2.78;;;8.30;99.90;;;;;;4977059;28;20427;-74
2023/04/04 11:01:19;;;;;;;7.93;3.00;;;8.80;99.90;;;;;;4998586;28;20529;-74
2023/04/04 11:04:16;;;;;;;6.50;2.65;;;8.30;99.90;;;;;;4983293;28;20472;-75
2023/04/04 11:07:16;;;;;;;4.72;2.55;;;8.70;99.90;;;;;;4984347;28;20948;-75
2023/04/04 11:09:53;;;;;;;6.47;2.90;;;9.00;99.90;;;;;;4988381;28;20489;-74
2023/04/04 11:12:22;;;;;;;5.35;2.55;;;9.20;99.90;;;;;;4989366;28;20993;-74
2023/04/04 11:15:06;;;;;;;5.65;2.55;;;9.10;99.90;;;;;;4988093;28;21625;-74
2023/04/04 11:17:47;;;;;;;4.97;2.67;;;9.10;99.90;;;;;;4990864;28;20516;-74
2023/04/04 11:20:22;;;;;;;5.68;2.33;;;9.30;99.90;;;;;;4989751;28;20449;-75
2023/04/04 11:22:50;;;;;;;4.43;2.53;;;8.60;99.90;;;;;;4988930;28;20410;-75
2023/04/04 11:25:27;;;;;;;8.63;3.85;;;9.40;99.90;;;;;;4990377;28;20434;-75
2023/04/04 11:27:57;;;;;;;6.55;2.53;;;9.20;99.90;;;;;;4989857;28;20929;-74
2023/04/04 11:30:23;;;;;;;3.63;2.55;;;9.60;99.90;;;;;;4989590;28;20409;-76
2023/04/04 11:32:50;;;;;;;5.57;2.80;;;8.80;99.90;;;;;;4988020;28;20560;-74
2023/04/04 11:35:15;;;;;;;5.15;2.50;;;8.80;99.90;;;;;;4989780;28;20901;-74
2023/04/04 11:37:51;;;;;;;7.80;3.28;;;9.20;99.90;;;;;;4989572;28;20414;-74
2023/04/04 11:40:17;;;;;;;8.27;3.83;;;9.50;99.90;;;;;;4990034;28;20541;-74
2023/04/04 11:42:43;;;;;;;6.60;2.55;;;9.50;99.90;;;;;;4971797;28;20418;-74
2023/04/04 11:45:16;;;;;;;5.30;2.47;;;9.50;99.90;;;;;;4987520;28;20449;-74
2023/04/04 11:47:46;;;;;;;6.25;2.78;;;9.20;99.90;;;;;;4989106;28;20413;-74
2023/04/04 11:50:13;;;;;;;5.68;3.78;;;9.70;99.90;;;;;;4988962;28;20498;-74
2023/04/04 11:52:41;;;;;;;6.97;2.72;;;9.60;99.90;;;;;;4987679;28;20419;-75
2023/04/04 11:55:18;;;;;;;7.97;2.88;;;9.50;99.90;;;;;;4989662;28;20399;-75
2023/04/04 11:57:48;;;;;;;7.60;2.30;;;9.80;99.90;;;;;;4989486;28;20419;-75
2023/04/04 12:00:34;;;;;;;5.60;3.28;;;9.40;99.90;;;;;;4988545;28;20413;-75
2023/04/04 12:03:00;;;;;;;5.43;2.97;;;9.50;99.90;;;;;;4969269;28;20828;-75
2023/04/04 12:05:27;;;;;;;8.80;3.50;;;9.30;99.90;;;;;;4968640;28;20444;-75
2023/04/04 12:07:53;;;;;;;6.80;3.03;;;9.30;99.90;;;;;;4969292;28;20925;-75
2023/04/04 12:10:21;;;;;;;5.95;2.90;;;9.70;99.90;;;;;;4968422;28;20412;-76
2023/04/04 12:12:46;;;;;;;5.68;2.67;;;9.50;99.90;;;;;;4969652;28;20444;-76
2023/04/04 12:15:16;;;;;;;7.37;3.00;;;9.60;99.90;;;;;;4987036;28;20884;-75
2023/04/04 12:17:43;;;;;;;4.72;2.35;;;9.60;99.90;;;;;;4988372;28;20870;-76
2023/04/04 12:20:10;;;;;;;7.05;3.05;;;9.70;99.90;;;;;;4987310;28;20770;-75
2023/04/04 12:22:36;;;;;;;4.97;2.55;;;9.70;99.90;;;;;;4971543;28;20422;-77
2023/04/04 12:25:04;;;;;;;6.38;3.00;;;9.60;99.90;;;;;;4988189;28;20437;-75
2023/04/04 12:27:31;;;;;;;5.88;2.50;;;10.00;99.90;;;;;;4990542;28;20808;-74
2023/04/04 12:29:59;;;;;;;7.63;3.55;;;9.90;99.90;;;;;;4988187;28;20414;-75
2023/04/04 12:32:25;;;;;;;4.72;2.80;;;9.80;99.90;;;;;;4989837;28;20793;-75
2023/04/04 12:34:51;;;;;;;5.93;2.72;;;9.50;99.90;;;;;;4989624;28;20968;-74
2023/04/04 12:37:20;;;;;;;5.53;2.60;;;9.20;99.90;;;;;;4990519;28;20418;-74
2023/04/04 12:39:48;;;;;;;5.78;2.65;;;9.50;99.90;;;;;;4972491;28;20418;-74
2023/04/04 12:42:21;;;;;;;5.60;2.77;;;10.10;99.90;;;;;;4990790;28;20411;-74
2023/04/04 12:44:49;;;;;;;5.05;2.53;;;10.30;99.90;;;;;;4989217;28;20441;-74
2023/04/04 12:47:16;;;;;;;7.55;2.63;;;9.80;99.90;;;;;;4988735;28;20727;-74
2023/04/04 12:49:47;;;;;;;7.18;3.85;;;9.50;99.90;;;;;;4986656;28;20422;-75
2023/04/04 12:52:31;;;;;;;4.35;2.58;;;9.90;99.90;;;;;;4984382;28;20412;-75
2023/04/04 12:55:09;;;;;;;5.43;2.70;;;10.00;99.90;;;;;;4968710;28;20424;-75
2023/04/04 12:57:38;;;;;;;5.53;3.00;;;9.90;99.90;;;;;;4969475;28;20423;-74